Terminal Aerodrome Forecast
Issued by NWS

Home | Current Version | Previous Version | Text Only | Print | Product List | Glossary On
Versions: 1 2 3 4 5 6 7 8 9 10 11 12 13 14 15 16 17 18
555
FTUS42 KGSP 271733
TAFGMU
TAF
KGMU 271733Z 2718/2818 20009KT P6SM SCT024 BKN035
     FM272000 22007KT P6SM SCT040
      TEMPO 2720/2724 3SM -TSRA BR BKN025CB
     FM280000 24003KT P6SM VCSH BKN045
     FM280700 VRB02KT 5SM BR SCT080
     FM281300 23006KT P6SM SCT025 BKN080=

USA.gov is the U.S. government's official web portal to all federal, state and local government web resources and services.